UNO824 GOBD-DRRN
Flight info
| Callsign | UNO824 |
|---|---|
| Flight time | 2h 38m |
| Altitude | 35000 |
| Route | KITNI DCT VOTAB UM974 TENPO/N0444F370 UM974 LIPET ULGAS1R |
| Aircraft | A320/M-SDE3FGHIRWY/LB1 |
Departure
| Time | 2026-04-22 17:27 |
|---|---|
| Airport | Blaise Diagne International Airport (GOBD) |
Arrival
| Time | 2026-04-22 20:06 |
|---|---|
| Airport | Diori Hamani International Airport (DRRN) |
| Time | Latitude | Longitude | Altitude | Speed | Heading |
|---|---|---|---|---|---|
| 2026-04-22 16:42 | 14.66866 | -17.06849 | 303 ft | 0 kts | 90° |
| 2026-04-22 16:52 | 14.66566 | -17.06797 | 303 ft | 0 kts | 180° |
| 2026-04-22 17:18 | 14.66586 | -17.06797 | 303 ft | 4 kts | 182° |
| 2026-04-22 17:18 | 14.66613 | -17.06795 | 303 ft | 4 kts | 187° |
| 2026-04-22 17:19 | 14.66662 | -17.06778 | 301 ft | 4 kts | 243° |
| 2026-04-22 17:19 | 14.66666 | -17.06765 | 302 ft | 0 kts | 270° |
| 2026-04-22 17:21 | 14.66666 | -17.06767 | 302 ft | 1 kts | 270° |
| 2026-04-22 17:22 | 14.66666 | -17.06806 | 303 ft | 5 kts | 270° |
| 2026-04-22 17:22 | 14.66666 | -17.06839 | 302 ft | 4 kts | 270° |
| 2026-04-22 17:22 | 14.66664 | -17.06924 | 302 ft | 8 kts | 269° |
| 2026-04-22 17:23 | 14.66663 | -17.06992 | 303 ft | 11 kts | 269° |
| 2026-04-22 17:23 | 14.66562 | -17.07088 | 305 ft | 13 kts | 179° |
| 2026-04-22 17:23 | 14.66463 | -17.07085 | 302 ft | 15 kts | 179° |
| 2026-04-22 17:24 | 14.66353 | -17.07083 | 302 ft | 16 kts | 179° |
| 2026-04-22 17:24 | 14.66234 | -17.07083 | 302 ft | 18 kts | 179° |
| 2026-04-22 17:24 | 14.66105 | -17.07082 | 302 ft | 19 kts | 179° |
| 2026-04-22 17:24 | 14.65967 | -17.07080 | 302 ft | 20 kts | 179° |
| 2026-04-22 17:25 | 14.65821 | -17.07078 | 302 ft | 22 kts | 179° |
| 2026-04-22 17:25 | 14.65685 | -17.07078 | 304 ft | 12 kts | 181° |
| 2026-04-22 17:25 | 14.65625 | -17.07096 | 302 ft | 10 kts | 226° |
| 2026-04-22 17:25 | 14.65617 | -17.07171 | 301 ft | 12 kts | 269° |
| 2026-04-22 17:26 | 14.65636 | -17.07258 | 303 ft | 14 kts | 316° |
| 2026-04-22 17:26 | 14.65694 | -17.07271 | 300 ft | 0 kts | 2° |
| 2026-04-22 17:26 | 14.65695 | -17.07271 | 300 ft | 1 kts | 2° |
| 2026-04-22 17:26 | 14.65757 | -17.07271 | 300 ft | 26 kts | 360° |
| 2026-04-22 17:27 | 14.66157 | -17.07277 | 300 ft | 88 kts | 359° |
| 2026-04-22 17:27 | 14.66935 | -17.07286 | 304 ft | 134 kts | 359° |
| 2026-04-22 17:27 | 14.67961 | -17.07276 | 575 ft | 148 kts | 1° |
| 2026-04-22 17:27 | 14.68992 | -17.07283 | 1211 ft | 149 kts | 1° |
| 2026-04-22 17:28 | 14.70033 | -17.07306 | 1840 ft | 150 kts | 0° |
| 2026-04-22 17:28 | 14.71102 | -17.07150 | 2096 ft | 168 kts | 24° |
| 2026-04-22 17:28 | 14.71912 | -17.06216 | 2239 ft | 191 kts | 71° |
| 2026-04-22 17:28 | 14.71937 | -17.04788 | 2491 ft | 210 kts | 101° |
| 2026-04-22 17:29 | 14.71608 | -17.03265 | 2751 ft | 225 kts | 94° |
| 2026-04-22 17:29 | 14.71564 | -17.01576 | 2924 ft | 247 kts | 87° |
| 2026-04-22 17:29 | 14.71625 | -16.99987 | 3198 ft | 265 kts | 86° |
| 2026-04-22 17:29 | 14.71725 | -16.98050 | 3803 ft | 274 kts | 86° |
| 2026-04-22 17:30 | 14.71791 | -16.96747 | 4258 ft | 277 kts | 86° |
| 2026-04-22 17:30 | 14.71910 | -16.94050 | 5190 ft | 283 kts | 88° |
| 2026-04-22 17:30 | 14.71983 | -16.92008 | 5899 ft | 286 kts | 88° |
| 2026-04-22 17:30 | 14.72046 | -16.89945 | 6608 ft | 288 kts | 89° |
| 2026-04-22 17:31 | 14.72104 | -16.87893 | 7297 ft | 291 kts | 89° |
| 2026-04-22 17:31 | 14.72159 | -16.85804 | 8022 ft | 292 kts | 90° |
| 2026-04-22 17:31 | 14.72213 | -16.83697 | 8739 ft | 294 kts | 90° |
| 2026-04-22 17:31 | 14.72266 | -16.81577 | 9459 ft | 296 kts | 91° |
| 2026-04-22 17:32 | 14.72320 | -16.79436 | 10084 ft | 301 kts | 91° |
| 2026-04-22 17:32 | 14.72374 | -16.77193 | 10248 ft | 323 kts | 91° |
| 2026-04-22 17:32 | 14.72430 | -16.74804 | 10455 ft | 340 kts | 91° |
| 2026-04-22 17:32 | 14.72494 | -16.72336 | 10924 ft | 347 kts | 91° |
| 2026-04-22 17:33 | 14.72538 | -16.70680 | 11276 ft | 350 kts | 90° |
| 2026-04-22 17:33 | 14.72629 | -16.67290 | 12015 ft | 355 kts | 90° |
| 2026-04-22 17:33 | 14.72696 | -16.64721 | 12554 ft | 360 kts | 90° |
| 2026-04-22 17:33 | 14.72761 | -16.62121 | 13096 ft | 364 kts | 90° |
| 2026-04-22 17:34 | 14.72829 | -16.59488 | 13635 ft | 369 kts | 89° |
| 2026-04-22 17:34 | 14.72900 | -16.56827 | 14116 ft | 373 kts | 89° |
| 2026-04-22 17:34 | 14.72971 | -16.54131 | 14588 ft | 377 kts | 90° |
| 2026-04-22 17:34 | 14.73039 | -16.51406 | 15071 ft | 381 kts | 89° |
| 2026-04-22 17:35 | 14.73105 | -16.48657 | 15559 ft | 384 kts | 89° |
| 2026-04-22 17:35 | 14.73171 | -16.45922 | 16039 ft | 388 kts | 89° |
| 2026-04-22 17:35 | 14.73240 | -16.43082 | 16522 ft | 392 kts | 89° |
| 2026-04-22 17:35 | 14.73310 | -16.40294 | 16994 ft | 395 kts | 89° |
| 2026-04-22 17:36 | 14.73381 | -16.37443 | 17482 ft | 399 kts | 89° |
| 2026-04-22 17:36 | 14.73452 | -16.34566 | 17973 ft | 402 kts | 89° |
| 2026-04-22 17:36 | 14.73521 | -16.31666 | 18413 ft | 406 kts | 89° |
| 2026-04-22 17:36 | 14.73591 | -16.28748 | 18843 ft | 408 kts | 89° |
| 2026-04-22 17:37 | 14.73662 | -16.25802 | 19267 ft | 411 kts | 88° |
| 2026-04-22 17:37 | 14.73731 | -16.22840 | 19705 ft | 414 kts | 88° |
| 2026-04-22 17:37 | 14.73801 | -16.19850 | 20143 ft | 417 kts | 88° |
| 2026-04-22 17:37 | 14.73872 | -16.16850 | 20573 ft | 420 kts | 88° |
| 2026-04-22 17:38 | 14.73943 | -16.13824 | 21001 ft | 423 kts | 88° |
| 2026-04-22 17:38 | 14.74015 | -16.10776 | 21430 ft | 425 kts | 88° |
| 2026-04-22 17:38 | 14.74086 | -16.07715 | 21854 ft | 428 kts | 88° |
| 2026-04-22 17:38 | 14.74158 | -16.04628 | 22270 ft | 431 kts | 87° |
| 2026-04-22 17:39 | 14.74229 | -16.01523 | 22682 ft | 433 kts | 87° |
| 2026-04-22 17:39 | 14.74300 | -15.98403 | 23082 ft | 436 kts | 87° |
| 2026-04-22 17:39 | 14.74443 | -15.92099 | 23766 ft | 441 kts | 87° |
| 2026-04-22 17:40 | 14.74516 | -15.88924 | 24073 ft | 444 kts | 87° |
| 2026-04-22 17:40 | 14.74587 | -15.85726 | 24377 ft | 446 kts | 87° |
| 2026-04-22 17:40 | 14.74654 | -15.82517 | 24676 ft | 449 kts | 87° |
| 2026-04-22 17:40 | 14.74721 | -15.79286 | 24975 ft | 451 kts | 87° |
| 2026-04-22 17:41 | 14.74789 | -15.76039 | 25268 ft | 453 kts | 87° |
| 2026-04-22 17:41 | 14.74859 | -15.72776 | 25560 ft | 455 kts | 87° |
| 2026-04-22 17:41 | 14.74930 | -15.69494 | 25843 ft | 458 kts | 87° |
| 2026-04-22 17:41 | 14.75001 | -15.66241 | 26120 ft | 460 kts | 87° |
| 2026-04-22 17:42 | 14.75076 | -15.62893 | 26403 ft | 462 kts | 87° |
| 2026-04-22 17:42 | 14.75151 | -15.59600 | 26678 ft | 464 kts | 87° |
| 2026-04-22 17:42 | 14.75201 | -15.57346 | 26855 ft | 466 kts | 87° |
| 2026-04-22 17:42 | 14.75292 | -15.52898 | 27205 ft | 469 kts | 87° |
| 2026-04-22 17:43 | 14.75359 | -15.49526 | 27464 ft | 471 kts | 87° |
| 2026-04-22 17:43 | 14.75425 | -15.46128 | 27728 ft | 473 kts | 87° |
| 2026-04-22 17:43 | 14.75494 | -15.42721 | 27982 ft | 475 kts | 87° |
| 2026-04-22 17:43 | 14.75564 | -15.39298 | 28247 ft | 478 kts | 87° |
| 2026-04-22 17:44 | 14.75635 | -15.35863 | 28516 ft | 480 kts | 87° |
| 2026-04-22 17:44 | 14.75703 | -15.32409 | 28787 ft | 482 kts | 87° |
| 2026-04-22 17:44 | 14.75771 | -15.28937 | 29054 ft | 484 kts | 87° |
| 2026-04-22 17:44 | 14.75842 | -15.25453 | 29317 ft | 487 kts | 87° |
| 2026-04-22 17:45 | 14.75913 | -15.21949 | 29580 ft | 489 kts | 87° |
| 2026-04-22 17:45 | 14.75982 | -15.18437 | 29901 ft | 489 kts | 87° |
| 2026-04-22 17:45 | 14.76049 | -15.14928 | 30241 ft | 489 kts | 87° |
| 2026-04-22 17:45 | 14.76115 | -15.11419 | 30560 ft | 488 kts | 88° |
| 2026-04-22 17:46 | 14.76157 | -15.09096 | 30778 ft | 488 kts | 88° |
| 2026-04-22 17:46 | 14.76220 | -15.05596 | 31116 ft | 487 kts | 88° |
| 2026-04-22 17:46 | 14.76284 | -15.02101 | 31453 ft | 486 kts | 88° |
| 2026-04-22 17:46 | 14.76334 | -14.98611 | 31790 ft | 486 kts | 89° |
| 2026-04-22 17:47 | 14.76352 | -14.95123 | 32130 ft | 485 kts | 90° |
| 2026-04-22 17:47 | 14.76349 | -14.91644 | 32505 ft | 483 kts | 91° |
| 2026-04-22 17:47 | 14.76335 | -14.88190 | 33012 ft | 478 kts | 91° |
| 2026-04-22 17:47 | 14.76321 | -14.84766 | 33435 ft | 476 kts | 91° |
| 2026-04-22 17:48 | 14.76311 | -14.81348 | 33798 ft | 475 kts | 91° |
| 2026-04-22 17:48 | 14.76307 | -14.77942 | 34096 ft | 474 kts | 91° |
| 2026-04-22 17:48 | 14.76312 | -14.74542 | 34381 ft | 473 kts | 91° |
| 2026-04-22 17:48 | 14.76320 | -14.71148 | 34658 ft | 472 kts | 92° |
| 2026-04-22 17:49 | 14.76329 | -14.67759 | 34787 ft | 473 kts | 92° |
| 2026-04-22 17:49 | 14.76334 | -14.60938 | 34818 ft | 476 kts | 92° |
| 2026-04-22 17:50 | 14.76336 | -14.54104 | 34814 ft | 476 kts | 92° |
| 2026-04-22 17:50 | 14.76335 | -14.47270 | 34817 ft | 476 kts | 92° |
| 2026-04-22 17:51 | 14.76332 | -14.40428 | 34814 ft | 476 kts | 92° |
| 2026-04-22 17:51 | 14.76321 | -14.33593 | 34814 ft | 476 kts | 92° |
| 2026-04-22 17:52 | 14.76314 | -14.26747 | 34810 ft | 476 kts | 92° |
| 2026-04-22 17:52 | 14.76306 | -14.19903 | 34810 ft | 476 kts | 92° |
| 2026-04-22 17:53 | 14.76296 | -14.13110 | 34804 ft | 476 kts | 92° |
| 2026-04-22 17:53 | 14.76281 | -14.06271 | 34804 ft | 476 kts | 92° |
| 2026-04-22 17:54 | 14.76268 | -13.99423 | 34805 ft | 476 kts | 92° |
| 2026-04-22 17:54 | 14.76259 | -13.92584 | 34802 ft | 476 kts | 92° |
| 2026-04-22 17:55 | 14.76241 | -13.85749 | 34801 ft | 476 kts | 92° |
| 2026-04-22 17:55 | 14.76221 | -13.78900 | 34801 ft | 476 kts | 92° |
| 2026-04-22 17:56 | 14.76197 | -13.72062 | 34796 ft | 476 kts | 92° |
| 2026-04-22 17:56 | 14.76170 | -13.65217 | 34800 ft | 476 kts | 92° |
| 2026-04-22 17:57 | 14.76139 | -13.58380 | 34797 ft | 476 kts | 92° |
| 2026-04-22 17:57 | 14.76107 | -13.51537 | 34793 ft | 476 kts | 92° |
| 2026-04-22 17:58 | 14.76075 | -13.44698 | 34796 ft | 476 kts | 92° |
| 2026-04-22 17:58 | 14.76044 | -13.37900 | 34790 ft | 476 kts | 92° |
| 2026-04-22 17:59 | 14.76014 | -13.31059 | 34792 ft | 476 kts | 92° |
| 2026-04-22 17:59 | 14.75975 | -13.24216 | 34791 ft | 476 kts | 92° |
| 2026-04-22 18:00 | 14.75941 | -13.18487 | 34789 ft | 476 kts | 92° |
| 2026-04-22 18:00 | 14.75888 | -13.10537 | 34785 ft | 476 kts | 92° |
| 2026-04-22 18:01 | 14.75853 | -13.03694 | 34784 ft | 476 kts | 92° |
| 2026-04-22 18:01 | 14.75811 | -12.96839 | 34786 ft | 476 kts | 92° |
| 2026-04-22 18:02 | 14.75756 | -12.89998 | 34777 ft | 476 kts | 92° |
| 2026-04-22 18:02 | 14.75696 | -12.83150 | 34780 ft | 476 kts | 92° |
| 2026-04-22 18:03 | 14.75650 | -12.76351 | 34781 ft | 477 kts | 92° |
| 2026-04-22 18:03 | 14.75603 | -12.69506 | 34775 ft | 477 kts | 92° |
| 2026-04-22 18:04 | 14.75548 | -12.62655 | 34777 ft | 477 kts | 92° |
| 2026-04-22 18:04 | 14.75482 | -12.55809 | 34772 ft | 477 kts | 92° |
| 2026-04-22 18:05 | 14.75423 | -12.48964 | 34773 ft | 477 kts | 92° |
| 2026-04-22 18:05 | 14.75364 | -12.42111 | 34771 ft | 477 kts | 92° |
| 2026-04-22 18:06 | 14.75299 | -12.35264 | 34766 ft | 477 kts | 92° |
| 2026-04-22 18:06 | 14.75229 | -12.28452 | 34764 ft | 477 kts | 92° |
| 2026-04-22 18:07 | 14.75161 | -12.21604 | 34761 ft | 477 kts | 92° |
| 2026-04-22 18:07 | 14.75090 | -12.14749 | 34761 ft | 477 kts | 92° |
| 2026-04-22 18:08 | 14.75013 | -12.07899 | 34759 ft | 477 kts | 92° |
| 2026-04-22 18:08 | 14.74934 | -12.01035 | 34760 ft | 477 kts | 92° |
| 2026-04-22 18:09 | 14.74862 | -11.94178 | 34756 ft | 477 kts | 92° |
| 2026-04-22 18:09 | 14.74790 | -11.87327 | 34753 ft | 477 kts | 92° |
| 2026-04-22 18:10 | 14.74710 | -11.80517 | 34752 ft | 477 kts | 92° |
| 2026-04-22 18:10 | 14.74625 | -11.73665 | 34752 ft | 477 kts | 92° |
| 2026-04-22 18:11 | 14.74542 | -11.66805 | 34749 ft | 478 kts | 92° |
| 2026-04-22 18:11 | 14.74458 | -11.59943 | 34749 ft | 478 kts | 92° |
| 2026-04-22 18:12 | 14.74367 | -11.53077 | 34749 ft | 478 kts | 92° |
| 2026-04-22 18:12 | 14.74289 | -11.47367 | 34744 ft | 478 kts | 92° |
| 2026-04-22 18:13 | 14.74175 | -11.39391 | 34745 ft | 477 kts | 92° |
| 2026-04-22 18:13 | 14.74089 | -11.32527 | 34739 ft | 477 kts | 92° |
| 2026-04-22 18:14 | 14.73992 | -11.25666 | 34743 ft | 477 kts | 92° |
| 2026-04-22 18:14 | 14.73889 | -11.18805 | 34738 ft | 478 kts | 92° |
| 2026-04-22 18:15 | 14.73785 | -11.11945 | 34738 ft | 478 kts | 92° |
| 2026-04-22 18:15 | 14.73686 | -11.05086 | 34740 ft | 478 kts | 92° |
| 2026-04-22 18:16 | 14.73586 | -10.98222 | 34740 ft | 478 kts | 92° |
| 2026-04-22 18:16 | 14.73478 | -10.91368 | 34739 ft | 478 kts | 92° |
| 2026-04-22 18:17 | 14.73366 | -10.84503 | 34739 ft | 478 kts | 92° |
| 2026-04-22 18:17 | 14.73252 | -10.77643 | 34741 ft | 478 kts | 92° |
| 2026-04-22 18:18 | 14.73144 | -10.70790 | 34747 ft | 477 kts | 92° |
| 2026-04-22 18:18 | 14.73030 | -10.63929 | 34743 ft | 477 kts | 92° |
| 2026-04-22 18:19 | 14.72911 | -10.57071 | 34746 ft | 477 kts | 92° |
| 2026-04-22 18:19 | 14.72788 | -10.50218 | 34742 ft | 477 kts | 92° |
| 2026-04-22 18:20 | 14.72665 | -10.43411 | 34743 ft | 477 kts | 92° |
| 2026-04-22 18:20 | 14.72545 | -10.36565 | 34743 ft | 477 kts | 92° |
| 2026-04-22 18:21 | 14.72414 | -10.29715 | 34743 ft | 477 kts | 92° |
| 2026-04-22 18:21 | 14.72283 | -10.22870 | 34745 ft | 477 kts | 92° |
| 2026-04-22 18:22 | 14.72153 | -10.16019 | 34743 ft | 477 kts | 92° |
| 2026-04-22 18:22 | 14.72019 | -10.09172 | 34746 ft | 477 kts | 92° |
| 2026-04-22 18:23 | 14.71889 | -10.02323 | 34748 ft | 477 kts | 92° |
| 2026-04-22 18:23 | 14.71761 | -9.95473 | 34748 ft | 477 kts | 92° |
| 2026-04-22 18:24 | 14.71550 | -9.85202 | 34747 ft | 477 kts | 92° |
| 2026-04-22 18:25 | 14.71341 | -9.74979 | 34746 ft | 476 kts | 92° |
| 2026-04-22 18:25 | 14.71199 | -9.68142 | 34747 ft | 476 kts | 92° |
| 2026-04-22 18:26 | 14.70966 | -9.57878 | 34748 ft | 476 kts | 92° |
| 2026-04-22 18:26 | 14.70823 | -9.51042 | 34745 ft | 476 kts | 92° |
| 2026-04-22 18:27 | 14.70684 | -9.44212 | 34743 ft | 476 kts | 92° |
| 2026-04-22 18:27 | 14.70536 | -9.37373 | 34739 ft | 476 kts | 92° |
| 2026-04-22 18:28 | 14.70384 | -9.30550 | 34739 ft | 476 kts | 92° |
| 2026-04-22 18:28 | 14.70236 | -9.23715 | 34740 ft | 476 kts | 92° |
| 2026-04-22 18:29 | 14.70082 | -9.16879 | 34743 ft | 476 kts | 92° |
| 2026-04-22 18:29 | 14.69921 | -9.10040 | 34746 ft | 476 kts | 92° |
| 2026-04-22 18:30 | 14.69686 | -8.99776 | 34752 ft | 476 kts | 92° |
| 2026-04-22 18:31 | 14.69525 | -8.92941 | 34755 ft | 476 kts | 92° |
| 2026-04-22 18:31 | 14.69358 | -8.86099 | 34756 ft | 476 kts | 92° |
| 2026-04-22 18:32 | 14.69219 | -8.80416 | 34753 ft | 476 kts | 92° |
| 2026-04-22 18:32 | 14.69009 | -8.72423 | 34757 ft | 476 kts | 92° |
| 2026-04-22 18:33 | 14.68837 | -8.65578 | 34755 ft | 478 kts | 92° |
| 2026-04-22 18:33 | 14.68688 | -8.58608 | 34770 ft | 493 kts | 91° |
| 2026-04-22 18:34 | 14.68622 | -8.51459 | 34854 ft | 501 kts | 92° |
| 2026-04-22 18:34 | 14.68548 | -8.47901 | 34844 ft | 488 kts | 92° |
| 2026-04-22 18:34 | 14.68465 | -8.44438 | 34839 ft | 479 kts | 92° |
| 2026-04-22 18:35 | 14.68327 | -8.38748 | 34828 ft | 476 kts | 92° |
| 2026-04-22 18:35 | 14.68156 | -8.31930 | 34782 ft | 475 kts | 92° |
| 2026-04-22 18:36 | 14.67978 | -8.25107 | 34736 ft | 475 kts | 92° |
| 2026-04-22 18:36 | 14.67794 | -8.18288 | 34691 ft | 475 kts | 92° |
| 2026-04-22 18:37 | 14.67603 | -8.11470 | 34643 ft | 475 kts | 92° |
| 2026-04-22 18:37 | 14.67405 | -8.04646 | 34599 ft | 475 kts | 92° |
| 2026-04-22 18:38 | 14.67204 | -7.97819 | 34554 ft | 476 kts | 92° |
| 2026-04-22 18:38 | 14.66996 | -7.90989 | 34658 ft | 476 kts | 92° |
| 2026-04-22 18:39 | 14.66688 | -7.80789 | 34744 ft | 476 kts | 92° |
| 2026-04-22 18:39 | 14.66480 | -7.73959 | 34743 ft | 476 kts | 92° |
| 2026-04-22 18:40 | 14.66200 | -7.67137 | 34747 ft | 476 kts | 94° |
| 2026-04-22 18:40 | 14.65896 | -7.60310 | 34751 ft | 476 kts | 93° |
| 2026-04-22 18:41 | 14.65674 | -7.53477 | 34757 ft | 476 kts | 92° |
| 2026-04-22 18:41 | 14.65488 | -7.46628 | 34763 ft | 477 kts | 92° |
| 2026-04-22 18:42 | 14.65293 | -7.39788 | 34768 ft | 477 kts | 92° |
| 2026-04-22 18:42 | 14.65084 | -7.32942 | 34770 ft | 477 kts | 92° |
| 2026-04-22 18:43 | 14.64865 | -7.26096 | 34775 ft | 477 kts | 92° |
| 2026-04-22 18:43 | 14.64649 | -7.19243 | 34779 ft | 477 kts | 92° |
| 2026-04-22 18:44 | 14.64433 | -7.12432 | 34780 ft | 478 kts | 92° |
| 2026-04-22 18:44 | 14.64213 | -7.05570 | 34782 ft | 478 kts | 92° |
| 2026-04-22 18:45 | 14.63995 | -6.98707 | 34786 ft | 479 kts | 92° |
| 2026-04-22 18:45 | 14.63771 | -6.91838 | 34789 ft | 479 kts | 92° |
| 2026-04-22 18:46 | 14.63532 | -6.84961 | 34793 ft | 479 kts | 92° |
| 2026-04-22 18:46 | 14.63292 | -6.78087 | 34793 ft | 479 kts | 92° |
| 2026-04-22 18:47 | 14.63060 | -6.71205 | 34798 ft | 480 kts | 92° |
| 2026-04-22 18:47 | 14.62833 | -6.64320 | 34798 ft | 480 kts | 92° |
| 2026-04-22 18:48 | 14.62603 | -6.57433 | 34798 ft | 480 kts | 92° |
| 2026-04-22 18:48 | 14.62364 | -6.50552 | 34801 ft | 480 kts | 92° |
| 2026-04-22 18:49 | 14.62118 | -6.43666 | 34803 ft | 480 kts | 92° |
| 2026-04-22 18:49 | 14.61881 | -6.36779 | 34801 ft | 480 kts | 92° |
| 2026-04-22 18:50 | 14.61641 | -6.29938 | 34801 ft | 480 kts | 92° |
| 2026-04-22 18:50 | 14.61396 | -6.23051 | 34798 ft | 480 kts | 92° |
| 2026-04-22 18:51 | 14.61149 | -6.16167 | 34801 ft | 480 kts | 92° |
| 2026-04-22 18:51 | 14.60898 | -6.09282 | 34803 ft | 480 kts | 92° |
| 2026-04-22 18:52 | 14.60645 | -6.02404 | 34802 ft | 480 kts | 92° |
| 2026-04-22 18:52 | 14.60382 | -5.95521 | 34807 ft | 480 kts | 92° |
| 2026-04-22 18:53 | 14.60127 | -5.88633 | 34812 ft | 480 kts | 92° |
| 2026-04-22 18:53 | 14.59868 | -5.81748 | 34816 ft | 480 kts | 92° |
| 2026-04-22 18:54 | 14.59608 | -5.74857 | 34820 ft | 480 kts | 92° |
| 2026-04-22 18:54 | 14.59349 | -5.67976 | 34820 ft | 480 kts | 92° |
| 2026-04-22 18:55 | 14.59079 | -5.61089 | 34817 ft | 480 kts | 92° |
| 2026-04-22 18:55 | 14.58818 | -5.54208 | 34816 ft | 480 kts | 92° |
| 2026-04-22 18:56 | 14.58552 | -5.47319 | 34815 ft | 480 kts | 92° |
| 2026-04-22 18:56 | 14.58278 | -5.40435 | 34814 ft | 480 kts | 92° |
| 2026-04-22 18:57 | 14.58001 | -5.33554 | 34810 ft | 480 kts | 92° |
| 2026-04-22 18:57 | 14.57720 | -5.26667 | 34811 ft | 480 kts | 92° |
| 2026-04-22 18:58 | 14.57445 | -5.19772 | 34810 ft | 481 kts | 92° |
| 2026-04-22 18:58 | 14.57181 | -5.12875 | 34808 ft | 481 kts | 92° |
| 2026-04-22 18:59 | 14.56905 | -5.05967 | 34811 ft | 482 kts | 92° |
| 2026-04-22 18:59 | 14.56614 | -4.99102 | 34808 ft | 482 kts | 92° |
| 2026-04-22 19:00 | 14.56320 | -4.92199 | 34805 ft | 482 kts | 92° |
| 2026-04-22 19:00 | 14.56032 | -4.85289 | 34802 ft | 481 kts | 92° |
| 2026-04-22 19:01 | 14.55743 | -4.78388 | 34803 ft | 481 kts | 92° |
| 2026-04-22 19:01 | 14.55455 | -4.71480 | 34800 ft | 482 kts | 92° |
| 2026-04-22 19:02 | 14.55162 | -4.64573 | 34796 ft | 482 kts | 92° |
| 2026-04-22 19:02 | 14.54866 | -4.57664 | 34798 ft | 481 kts | 92° |
| 2026-04-22 19:03 | 14.54569 | -4.50755 | 34799 ft | 481 kts | 92° |
| 2026-04-22 19:03 | 14.54266 | -4.43861 | 34799 ft | 481 kts | 92° |
| 2026-04-22 19:04 | 14.53963 | -4.36957 | 34770 ft | 483 kts | 92° |
| 2026-04-22 19:04 | 14.53661 | -4.30003 | 34768 ft | 487 kts | 92° |
| 2026-04-22 19:05 | 14.53350 | -4.23000 | 34778 ft | 489 kts | 92° |
| 2026-04-22 19:05 | 14.53035 | -4.16009 | 34789 ft | 491 kts | 92° |
| 2026-04-22 19:06 | 14.52717 | -4.08966 | 34793 ft | 492 kts | 92° |
| 2026-04-22 19:07 | 14.52095 | -3.98389 | 34803 ft | 493 kts | 94° |
| 2026-04-22 19:07 | 14.51514 | -3.91325 | 34798 ft | 494 kts | 94° |
| 2026-04-22 19:08 | 14.50938 | -3.84255 | 34796 ft | 495 kts | 94° |
| 2026-04-22 19:08 | 14.50409 | -3.77171 | 34800 ft | 495 kts | 94° |
| 2026-04-22 19:09 | 14.49889 | -3.70085 | 34805 ft | 495 kts | 94° |
| 2026-04-22 19:09 | 14.49450 | -3.64187 | 34813 ft | 495 kts | 94° |
| 2026-04-22 19:10 | 14.48819 | -3.55904 | 34821 ft | 495 kts | 94° |
| 2026-04-22 19:10 | 14.48276 | -3.48814 | 34826 ft | 495 kts | 93° |
| 2026-04-22 19:11 | 14.47735 | -3.41733 | 34830 ft | 495 kts | 93° |
| 2026-04-22 19:11 | 14.47192 | -3.34654 | 34832 ft | 495 kts | 93° |
| 2026-04-22 19:12 | 14.46650 | -3.27618 | 34830 ft | 495 kts | 93° |
| 2026-04-22 19:12 | 14.46104 | -3.20542 | 34829 ft | 495 kts | 93° |
| 2026-04-22 19:13 | 14.45554 | -3.13453 | 34829 ft | 495 kts | 94° |
| 2026-04-22 19:13 | 14.44997 | -3.06370 | 34829 ft | 496 kts | 94° |
| 2026-04-22 19:14 | 14.44472 | -2.99664 | 34831 ft | 496 kts | 94° |
| 2026-04-22 19:14 | 14.43917 | -2.92572 | 34831 ft | 496 kts | 94° |
| 2026-04-22 19:15 | 14.43491 | -2.87178 | 34834 ft | 497 kts | 94° |
| 2026-04-22 19:15 | 14.42864 | -2.78773 | 34977 ft | 503 kts | 94° |
| 2026-04-22 19:15 | 14.42585 | -2.75198 | 34798 ft | 497 kts | 94° |
| 2026-04-22 19:16 | 14.42295 | -2.71647 | 34808 ft | 496 kts | 94° |
| 2026-04-22 19:16 | 14.41711 | -2.64574 | 34810 ft | 495 kts | 94° |
| 2026-04-22 19:17 | 14.41127 | -2.57492 | 34810 ft | 495 kts | 94° |
| 2026-04-22 19:17 | 14.40567 | -2.50468 | 34814 ft | 495 kts | 94° |
| 2026-04-22 19:18 | 14.39826 | -2.43414 | 34816 ft | 495 kts | 101° |
| 2026-04-22 19:18 | 14.38511 | -2.36437 | 34817 ft | 496 kts | 101° |
| 2026-04-22 19:19 | 14.37202 | -2.29456 | 34823 ft | 496 kts | 101° |
| 2026-04-22 19:19 | 14.35899 | -2.22470 | 34825 ft | 496 kts | 101° |
| 2026-04-22 19:20 | 14.34588 | -2.15492 | 34826 ft | 496 kts | 101° |
| 2026-04-22 19:20 | 14.33267 | -2.08509 | 34828 ft | 496 kts | 101° |
| 2026-04-22 19:21 | 14.31954 | -2.01577 | 34825 ft | 496 kts | 101° |
| 2026-04-22 19:21 | 14.30643 | -1.94607 | 34827 ft | 495 kts | 101° |
| 2026-04-22 19:22 | 14.29329 | -1.87631 | 34825 ft | 495 kts | 101° |
| 2026-04-22 19:22 | 14.28006 | -1.80656 | 34822 ft | 495 kts | 101° |
| 2026-04-22 19:23 | 14.26679 | -1.73678 | 34824 ft | 496 kts | 101° |
| 2026-04-22 19:23 | 14.25574 | -1.67888 | 34825 ft | 496 kts | 101° |
| 2026-04-22 19:24 | 14.24248 | -1.60911 | 34825 ft | 496 kts | 101° |
| 2026-04-22 19:24 | 14.22929 | -1.53941 | 34827 ft | 495 kts | 101° |
| 2026-04-22 19:25 | 14.21601 | -1.46972 | 34826 ft | 496 kts | 101° |
| 2026-04-22 19:25 | 14.20263 | -1.40004 | 34826 ft | 496 kts | 101° |
| 2026-04-22 19:26 | 14.18932 | -1.33083 | 34823 ft | 496 kts | 101° |
| 2026-04-22 19:26 | 14.17593 | -1.26110 | 34825 ft | 496 kts | 101° |
| 2026-04-22 19:27 | 14.16248 | -1.19139 | 34825 ft | 496 kts | 101° |
| 2026-04-22 19:27 | 14.14899 | -1.12161 | 34827 ft | 496 kts | 101° |
| 2026-04-22 19:28 | 14.13560 | -1.05188 | 34828 ft | 496 kts | 101° |
| 2026-04-22 19:28 | 14.12222 | -0.98205 | 34824 ft | 497 kts | 101° |
| 2026-04-22 19:29 | 14.10875 | -0.91231 | 34825 ft | 496 kts | 101° |
| 2026-04-22 19:29 | 14.09518 | -0.84253 | 34823 ft | 497 kts | 101° |
| 2026-04-22 19:30 | 14.08386 | -0.78451 | 34827 ft | 497 kts | 101° |
| 2026-04-22 19:30 | 14.06812 | -0.70340 | 34829 ft | 497 kts | 101° |
| 2026-04-22 19:31 | 14.05458 | -0.63351 | 34835 ft | 498 kts | 101° |
| 2026-04-22 19:31 | 14.04095 | -0.56363 | 34833 ft | 498 kts | 101° |
| 2026-04-22 19:32 | 14.02733 | -0.49379 | 34835 ft | 497 kts | 101° |
| 2026-04-22 19:32 | 14.01364 | -0.42393 | 34833 ft | 498 kts | 101° |
| 2026-04-22 19:33 | 13.99991 | -0.35409 | 34836 ft | 498 kts | 101° |
| 2026-04-22 19:33 | 13.98619 | -0.28416 | 34835 ft | 498 kts | 101° |
| 2026-04-22 19:34 | 13.97256 | -0.21430 | 34841 ft | 498 kts | 101° |
| 2026-04-22 19:34 | 13.95882 | -0.14446 | 34840 ft | 498 kts | 101° |
| 2026-04-22 19:35 | 13.94503 | -0.07458 | 34837 ft | 498 kts | 101° |
| 2026-04-22 19:35 | 13.93130 | -0.00474 | 34837 ft | 498 kts | 101° |
| 2026-04-22 19:36 | 13.91757 | 0.06467 | 34833 ft | 498 kts | 101° |
| 2026-04-22 19:36 | 13.90369 | 0.13447 | 34832 ft | 498 kts | 101° |
| 2026-04-22 19:37 | 13.88984 | 0.20428 | 34832 ft | 498 kts | 101° |
| 2026-04-22 19:37 | 13.87594 | 0.27404 | 34832 ft | 497 kts | 101° |
| 2026-04-22 19:38 | 13.86205 | 0.34374 | 34829 ft | 497 kts | 101° |
| 2026-04-22 19:38 | 13.85512 | 0.37867 | 34677 ft | 498 kts | 101° |
| 2026-04-22 19:38 | 13.84822 | 0.41356 | 34443 ft | 497 kts | 101° |
| 2026-04-22 19:38 | 13.84126 | 0.44853 | 33526 ft | 504 kts | 101° |
| 2026-04-22 19:39 | 13.83410 | 0.48421 | 32488 ft | 511 kts | 100° |
| 2026-04-22 19:39 | 13.82687 | 0.52014 | 31424 ft | 515 kts | 99° |
| 2026-04-22 19:39 | 13.81963 | 0.55604 | 30425 ft | 508 kts | 98° |
| 2026-04-22 19:39 | 13.81252 | 0.59116 | 29760 ft | 494 kts | 97° |
| 2026-04-22 19:40 | 13.80561 | 0.62532 | 29075 ft | 486 kts | 98° |
| 2026-04-22 19:40 | 13.79878 | 0.65931 | 28416 ft | 483 kts | 98° |
| 2026-04-22 19:40 | 13.79214 | 0.69265 | 27771 ft | 480 kts | 98° |
| 2026-04-22 19:40 | 13.78537 | 0.72667 | 27110 ft | 478 kts | 99° |
| 2026-04-22 19:41 | 13.77881 | 0.75965 | 26470 ft | 476 kts | 99° |
| 2026-04-22 19:41 | 13.77213 | 0.79293 | 25827 ft | 474 kts | 100° |
| 2026-04-22 19:41 | 13.76543 | 0.82605 | 25182 ft | 472 kts | 101° |
| 2026-04-22 19:41 | 13.75875 | 0.85898 | 24550 ft | 470 kts | 101° |
| 2026-04-22 19:42 | 13.75212 | 0.89181 | 23924 ft | 468 kts | 102° |
| 2026-04-22 19:42 | 13.74553 | 0.92447 | 23289 ft | 465 kts | 102° |
| 2026-04-22 19:42 | 13.73897 | 0.95691 | 22653 ft | 460 kts | 102° |
| 2026-04-22 19:42 | 13.73255 | 0.98884 | 22094 ft | 452 kts | 102° |
| 2026-04-22 19:43 | 13.72011 | 1.05046 | 21026 ft | 429 kts | 102° |
| 2026-04-22 19:43 | 13.71411 | 1.08017 | 20520 ft | 420 kts | 102° |
| 2026-04-22 19:43 | 13.70815 | 1.10953 | 19997 ft | 419 kts | 102° |
| 2026-04-22 19:44 | 13.70218 | 1.13884 | 19467 ft | 417 kts | 102° |
| 2026-04-22 19:44 | 13.69632 | 1.16770 | 18933 ft | 408 kts | 102° |
| 2026-04-22 19:44 | 13.69060 | 1.19594 | 18406 ft | 401 kts | 101° |
| 2026-04-22 19:44 | 13.68491 | 1.22401 | 17815 ft | 401 kts | 101° |
| 2026-04-22 19:45 | 13.67929 | 1.25167 | 17252 ft | 388 kts | 102° |
| 2026-04-22 19:45 | 13.67378 | 1.27861 | 16712 ft | 384 kts | 102° |
| 2026-04-22 19:45 | 13.66829 | 1.30543 | 16165 ft | 382 kts | 102° |
| 2026-04-22 19:45 | 13.66285 | 1.33203 | 15637 ft | 380 kts | 102° |
| 2026-04-22 19:46 | 13.65749 | 1.35826 | 15454 ft | 367 kts | 102° |
| 2026-04-22 19:46 | 13.65230 | 1.38367 | 15142 ft | 360 kts | 102° |
| 2026-04-22 19:46 | 13.64722 | 1.40863 | 14769 ft | 355 kts | 102° |
| 2026-04-22 19:46 | 13.64219 | 1.43335 | 14318 ft | 352 kts | 102° |
| 2026-04-22 19:47 | 13.63718 | 1.45794 | 13838 ft | 350 kts | 102° |
| 2026-04-22 19:47 | 13.63227 | 1.48212 | 13329 ft | 343 kts | 101° |
| 2026-04-22 19:47 | 13.62744 | 1.50600 | 12797 ft | 340 kts | 101° |
| 2026-04-22 19:47 | 13.62264 | 1.52965 | 12286 ft | 337 kts | 101° |
| 2026-04-22 19:48 | 13.61786 | 1.55307 | 11763 ft | 333 kts | 101° |
| 2026-04-22 19:48 | 13.61309 | 1.57633 | 11262 ft | 333 kts | 101° |
| 2026-04-22 19:48 | 13.60834 | 1.59944 | 10747 ft | 326 kts | 101° |
| 2026-04-22 19:48 | 13.60365 | 1.62216 | 10268 ft | 323 kts | 101° |
| 2026-04-22 19:49 | 13.59900 | 1.64471 | 9781 ft | 321 kts | 100° |
| 2026-04-22 19:49 | 13.59449 | 1.66677 | 9286 ft | 320 kts | 100° |
| 2026-04-22 19:49 | 13.58987 | 1.68923 | 9090 ft | 316 kts | 100° |
| 2026-04-22 19:49 | 13.58539 | 1.71104 | 8974 ft | 317 kts | 100° |
| 2026-04-22 19:50 | 13.58084 | 1.73327 | 8544 ft | 318 kts | 100° |
| 2026-04-22 19:50 | 13.57572 | 1.75540 | 8062 ft | 318 kts | 108° |
| 2026-04-22 19:50 | 13.56731 | 1.77597 | 7943 ft | 305 kts | 111° |
| 2026-04-22 19:50 | 13.55922 | 1.79530 | 7757 ft | 285 kts | 111° |
| 2026-04-22 19:51 | 13.55159 | 1.81368 | 7302 ft | 277 kts | 110° |
| 2026-04-22 19:51 | 13.54411 | 1.83179 | 6747 ft | 274 kts | 110° |
| 2026-04-22 19:51 | 13.53670 | 1.84974 | 6207 ft | 272 kts | 110° |
| 2026-04-22 19:51 | 13.52950 | 1.86715 | 5997 ft | 256 kts | 110° |
| 2026-04-22 19:52 | 13.52264 | 1.88366 | 5638 ft | 247 kts | 110° |
| 2026-04-22 19:52 | 13.51597 | 1.89966 | 5171 ft | 244 kts | 110° |
| 2026-04-22 19:52 | 13.50924 | 1.91585 | 4573 ft | 247 kts | 110° |
| 2026-04-22 19:52 | 13.50257 | 1.93187 | 4233 ft | 238 kts | 110° |
| 2026-04-22 19:53 | 13.49616 | 1.94725 | 4090 ft | 232 kts | 110° |
| 2026-04-22 19:53 | 13.48981 | 1.96254 | 4042 ft | 231 kts | 110° |
| 2026-04-22 19:53 | 13.48372 | 1.97710 | 3992 ft | 215 kts | 110° |
| 2026-04-22 19:53 | 13.47788 | 1.99110 | 3922 ft | 211 kts | 110° |
| 2026-04-22 19:54 | 13.47414 | 2.00496 | 3863 ft | 198 kts | 92° |
| 2026-04-22 19:54 | 13.47445 | 2.01876 | 3585 ft | 194 kts | 85° |
| 2026-04-22 19:54 | 13.47514 | 2.03250 | 3325 ft | 191 kts | 85° |
| 2026-04-22 19:54 | 13.47580 | 2.04611 | 3076 ft | 190 kts | 85° |
| 2026-04-22 19:55 | 13.47646 | 2.05963 | 2767 ft | 189 kts | 85° |
| 2026-04-22 19:55 | 13.47710 | 2.07294 | 2502 ft | 182 kts | 85° |
| 2026-04-22 19:55 | 13.47742 | 2.08515 | 2261 ft | 160 kts | 95° |
| 2026-04-22 19:55 | 13.47300 | 2.09529 | 2248 ft | 161 kts | 128° |
| 2026-04-22 19:56 | 13.46341 | 2.10143 | 2274 ft | 169 kts | 161° |
| 2026-04-22 19:56 | 13.45167 | 2.10272 | 2401 ft | 173 kts | 173° |
| 2026-04-22 19:56 | 13.43927 | 2.10194 | 2520 ft | 186 kts | 186° |
| 2026-04-22 19:56 | 13.42636 | 2.09993 | 2798 ft | 187 kts | 182° |
| 2026-04-22 19:57 | 13.41315 | 2.09858 | 3128 ft | 195 kts | 180° |
| 2026-04-22 19:57 | 13.39944 | 2.09715 | 3428 ft | 201 kts | 183° |
| 2026-04-22 19:57 | 13.38648 | 2.09146 | 3490 ft | 209 kts | 220° |
| 2026-04-22 19:57 | 13.37904 | 2.07887 | 3503 ft | 209 kts | 258° |
| 2026-04-22 19:58 | 13.37712 | 2.06410 | 3505 ft | 209 kts | 269° |
| 2026-04-22 19:58 | 13.37629 | 2.04923 | 3495 ft | 208 kts | 269° |
| 2026-04-22 19:58 | 13.37562 | 2.03441 | 3506 ft | 208 kts | 270° |
| 2026-04-22 19:58 | 13.37496 | 2.01960 | 3505 ft | 208 kts | 270° |
| 2026-04-22 19:59 | 13.37455 | 2.00477 | 3495 ft | 207 kts | 277° |
| 2026-04-22 20:00 | 13.44119 | 1.98112 | 2521 ft | 174 kts | 20° |
| 2026-04-22 20:00 | 13.45168 | 1.98678 | 2511 ft | 174 kts | 37° |
| 2026-04-22 20:01 | 13.46152 | 1.99411 | 2503 ft | 168 kts | 39° |
| 2026-04-22 20:01 | 13.47055 | 2.00133 | 2492 ft | 162 kts | 46° |
| 2026-04-22 20:01 | 13.47444 | 2.01136 | 2504 ft | 158 kts | 90° |
| 2026-04-22 20:01 | 13.47410 | 2.02261 | 2511 ft | 156 kts | 83° |
| 2026-04-22 20:02 | 13.47498 | 2.03356 | 2513 ft | 153 kts | 84° |
| 2026-04-22 20:02 | 13.47564 | 2.04430 | 2506 ft | 150 kts | 84° |
| 2026-04-22 20:02 | 13.47621 | 2.05494 | 2505 ft | 149 kts | 84° |
| 2026-04-22 20:02 | 13.47674 | 2.06552 | 2491 ft | 147 kts | 85° |
| 2026-04-22 20:03 | 13.47724 | 2.07599 | 2390 ft | 146 kts | 85° |
| 2026-04-22 20:03 | 13.47773 | 2.08626 | 2241 ft | 143 kts | 84° |
| 2026-04-22 20:03 | 13.47820 | 2.09636 | 2075 ft | 140 kts | 84° |
| 2026-04-22 20:03 | 13.47867 | 2.10632 | 1907 ft | 139 kts | 84° |
| 2026-04-22 20:04 | 13.47913 | 2.11623 | 1738 ft | 139 kts | 85° |
| 2026-04-22 20:04 | 13.47960 | 2.12625 | 1571 ft | 141 kts | 85° |
| 2026-04-22 20:04 | 13.48007 | 2.13634 | 1399 ft | 141 kts | 86° |
| 2026-04-22 20:04 | 13.48054 | 2.14646 | 1213 ft | 142 kts | 86° |
| 2026-04-22 20:05 | 13.48093 | 2.15670 | 1038 ft | 144 kts | 85° |
| 2026-04-22 20:05 | 13.48154 | 2.16696 | 816 ft | 145 kts | 85° |
| 2026-04-22 20:05 | 13.48197 | 2.17679 | 729 ft | 120 kts | 86° |
| 2026-04-22 20:05 | 13.48235 | 2.18361 | 726 ft | 71 kts | 88° |
| 2026-04-22 20:06 | 13.48248 | 2.18758 | 721 ft | 49 kts | 87° |
| 2026-04-22 20:06 | 13.48261 | 2.19087 | 716 ft | 42 kts | 88° |
| 2026-04-22 20:06 | 13.48259 | 2.19257 | 714 ft | 4 kts | 105° |
| 2026-04-22 20:06 | 13.48263 | 2.19298 | 714 ft | 7 kts | 84° |
| 2026-04-22 20:07 | 13.48270 | 2.19368 | 713 ft | 12 kts | 84° |
| 2026-04-22 20:07 | 13.48276 | 2.19469 | 712 ft | 16 kts | 87° |
| 2026-04-22 20:07 | 13.48281 | 2.19578 | 713 ft | 16 kts | 88° |
| 2026-04-22 20:07 | 13.48266 | 2.19649 | 715 ft | 0 kts | 122° |
| 2026-04-22 20:08 | 13.48260 | 2.19657 | 712 ft | 2 kts | 126° |
| 2026-04-22 20:08 | 13.48254 | 2.19666 | 713 ft | 1 kts | 128° |
| 2026-04-22 20:08 | 13.48251 | 2.19670 | 713 ft | 1 kts | 128° |
| 2026-04-22 20:08 | 13.48243 | 2.19681 | 714 ft | 3 kts | 128° |
| 2026-04-22 20:09 | 13.48221 | 2.19696 | 713 ft | 4 kts | 150° |
| 2026-04-22 20:09 | 13.48205 | 2.19702 | 712 ft | 1 kts | 164° |
| 2026-04-22 20:09 | 13.48191 | 2.19704 | 714 ft | 3 kts | 173° |
| 2026-04-22 20:09 | 13.48157 | 2.19705 | 712 ft | 7 kts | 181° |
| 2026-04-22 20:10 | 13.48108 | 2.19686 | 714 ft | 9 kts | 229° |
| 2026-04-22 20:10 | 13.48094 | 2.19616 | 714 ft | 11 kts | 269° |
| 2026-04-22 20:10 | 13.48090 | 2.19527 | 714 ft | 14 kts | 267° |
| 2026-04-22 20:10 | 13.48085 | 2.19422 | 718 ft | 16 kts | 267° |
| 2026-04-22 20:11 | 13.48079 | 2.19300 | 716 ft | 18 kts | 267° |
| 2026-04-22 20:11 | 13.48072 | 2.19165 | 721 ft | 20 kts | 267° |
| 2026-04-22 20:11 | 13.48066 | 2.19018 | 718 ft | 22 kts | 268° |
| 2026-04-22 20:11 | 13.48057 | 2.18858 | 723 ft | 23 kts | 267° |
| 2026-04-22 20:12 | 13.48052 | 2.18688 | 721 ft | 24 kts | 268° |
| 2026-04-22 20:12 | 13.48041 | 2.18510 | 723 ft | 26 kts | 266° |
| 2026-04-22 20:12 | 13.48036 | 2.18386 | 724 ft | 27 kts | 269° |
| 2026-04-22 20:12 | 13.48024 | 2.18122 | 726 ft | 28 kts | 266° |
| 2026-04-22 20:13 | 13.48015 | 2.17915 | 729 ft | 30 kts | 267° |
| 2026-04-22 20:13 | 13.48008 | 2.17750 | 729 ft | 18 kts | 267° |
| 2026-04-22 20:13 | 13.47993 | 2.17661 | 730 ft | 11 kts | 226° |
| 2026-04-22 20:13 | 13.47940 | 2.17649 | 730 ft | 13 kts | 179° |
| 2026-04-22 20:14 | 13.47846 | 2.17653 | 730 ft | 11 kts | 180° |
| 2026-04-22 20:14 | 13.47792 | 2.17679 | 730 ft | 7 kts | 131° |
| 2026-04-22 20:14 | 13.47780 | 2.17692 | 730 ft | 0 kts | 133° |